University Gardens, New York
Current Conditions -  °F | °C
As of 11:51 PM on Monday 22 Dec 2014 (Local Time) from KLGA Reporting Station
Drizzle Drizzle  
Wind Chill: 37°   Ceiling: 400
Heat Index: 43°   Visibility: 1.5mi
Dew Point: 42°   Wind: 12mph
Humidity: 97%   Direction: 50°NE
Pressure: 30.16"   Gusts: NA
Location:  40.7702°N, 73.7108°W
Report Text: KLGA 230451Z 05010KT 1 1/2SM -DZ BR OVC004 06/06 A3016 RMK AO2 SFC VIS 2 RAE35DZB43 SLP211 P0001 T00610056 400720017
Loading
Personal Weather Stations






























Interactive Weather Map New forecast layout! Learn more

10-Day Weather Forecast

Advertisements
Track Severe Weather on mobile